Sikinos — 9HA2865 — position and weather

sailwx.info

Track history (hours):
 
Tides and Currents Weather Stations Pressure Air Temp Water Temp Dewpoint Dewpoint Depression Visibility Wind Speed Wind Dir Waves Ship Positions

Sikinos

Last reported at 2015-Aug-31 19:33 UTC. Time now 2015-Sep-01 08:04 UTC.
Position N 51°22' E 003°11'.

Length 90 m; draft 5.4 m.

Type: Ship (hazmat cat A). MMSI: 256462000.

Date/timePositionNaut miles runAvg speedWind from/ knotsBaromVisibWave heightAir tempDewpointWater temp
2015-Aug-31 19:33N 51°22' E 003°11'9 9.4
2015-Aug-31 18:33N 51°22' E 002°56'10 9.7
2015-Aug-31 17:33N 51°22' E 002°41'1411.4
2015-Aug-31 16:17N 51°19' E 002°18'811.4
2015-Aug-31 15:33N 51°20' E 002°05'1111.0
2015-Aug-31 14:33N 51°28' E 001°52'1111.3
2015-Aug-31 13:34N 51°28' E 001°34'6 6.1
2015-Aug-31 12:31N 51°25' E 001°26'0 0.0
2015-Aug-31 11:31N 51°25' E 001°26'0 0.1
2015-Aug-31 10:31N 51°25' E 001°26'0 0.0
2015-Aug-31 09:31N 51°25' E 001°26'0 0.0
2015-Aug-31 08:31N 51°25' E 001°26'0 0.0
2015-Aug-31 07:31N 51°25' E 001°26'0 0.0
2015-Aug-31 06:31N 51°25' E 001°26'0 0.0
2015-Aug-31 05:31N 51°25' E 001°26'0 0.0
2015-Aug-31 04:31N 51°25' E 001°26'0 0.0
2015-Aug-31 03:31N 51°25' E 001°26'0 0.0
2015-Aug-31 02:31N 51°25' E 001°26'0 0.2
2015-Aug-31 01:31N 51°25' E 001°26'0 0.0
2015-Aug-31 00:31N 51°25' E 001°25'0 0.0
2015-Aug-30 23:31N 51°25' E 001°26'0 0.0
2015-Aug-30 22:31N 51°25' E 001°25'0 0.1
2015-Aug-30 21:31N 51°25' E 001°26'0 0.0
2015-Aug-30 20:31N 51°25' E 001°26'0 0.0
2015-Aug-30 19:31N 51°25' E 001°26'0 0.0
2015-Aug-30 18:31N 51°25' E 001°26'0 0.1
2015-Aug-30 17:31N 51°25' E 001°26'0 0.0
2015-Aug-30 16:31N 51°25' E 001°26'0 0.0
2015-Aug-30 15:31N 51°25' E 001°26'0 0.0
2015-Aug-30 14:31N 51°25' E 001°26'0 0.1
2015-Aug-30 13:33N 51°25' E 001°26'0 0.1
2015-Aug-30 12:33N 51°25' E 001°26'0 0.0
2015-Aug-30 11:33N 51°25' E 001°26'0 0.0
2015-Aug-30 10:33N 51°25' E 001°26'0 0.1
2015-Aug-30 09:33N 51°25' E 001°26'0 0.0
2015-Aug-30 08:33N 51°25' E 001°26'0 0.0
2015-Aug-30 07:33N 51°25' E 001°26'0 0.0
2015-Aug-30 06:33N 51°25' E 001°26'0 0.0
2015-Aug-30 05:33N 51°25' E 001°26'0 0.1
2015-Aug-30 04:33N 51°25' E 001°26'0 0.0
2015-Aug-30 03:33N 51°25' E 001°26'0 0.0
2015-Aug-30 02:33N 51°25' E 001°26'0 0.1
2015-Aug-30 01:33N 51°25' E 001°26'0 0.1
2015-Aug-30 00:33N 51°25' E 001°26'0 0.0
2015-Aug-29 23:33N 51°25' E 001°26'0 0.0
2015-Aug-29 22:33N 51°25' E 001°26'0 0.0
2015-Aug-29 21:33N 51°25' E 001°25'0 0.1
2015-Aug-29 20:33N 51°25' E 001°26'0 0.0
2015-Aug-29 19:33N 51°25' E 001°26'0 0.0
2015-Aug-29 18:33N 51°25' E 001°26'0 0.0
2015-Aug-29 17:32N 51°25' E 001°26'0 0.0
2015-Aug-29 16:32N 51°25' E 001°26'0 0.0
2015-Aug-29 15:31N 51°25' E 001°26'0 0.0
2015-Aug-29 14:31N 51°25' E 001°26'0 0.0
2015-Aug-29 13:32N 51°25' E 001°26'0 0.1
2015-Aug-29 12:32N 51°25' E 001°26'0 0.0
2015-Aug-29 11:33N 51°25' E 001°26'0 0.0
2015-Aug-29 10:33N 51°25' E 001°25'0 0.0
2015-Aug-29 09:33N 51°25' E 001°26'0 0.0
2015-Aug-29 08:33N 51°25' E 001°26'0 0.0
2015-Aug-29 07:33N 51°25' E 001°26'0 0.0
2015-Aug-29 06:33N 51°25' E 001°26'0 0.0
2015-Aug-29 05:33N 51°25' E 001°26'0 0.0
2015-Aug-29 04:30N 51°25' E 001°26'0 0.0
2015-Aug-29 03:33N 51°25' E 001°26'0 0.0
2015-Aug-29 02:33N 51°25' E 001°26'0 0.0
2015-Aug-29 01:32N 51°25' E 001°26'0 0.1
2015-Aug-29 00:32N 51°25' E 001°26'0 0.1
2015-Aug-28 23:33N 51°25' E 001°26'3 3.1
2015-Aug-28 22:33N 51°28' E 001°23'9 9.0
2015-Aug-28 21:33N 51°29' E 001°09'10 9.6
2015-Aug-28 20:33N 51°29' E 000°53'10 9.7
2015-Aug-28 19:33N 51°30' E 000°38'9 9.4
2015-Aug-28 18:33N 51°27' E 000°23'1 1.0
2015-Aug-28 17:33N 51°27' E 000°22'0 0.0
2015-Aug-28 16:34N 51°27' E 000°22'0 0.0
2015-Aug-28 15:33N 51°27' E 000°22'0 0.0
2015-Aug-28 14:34N 51°27' E 000°22'0 0.0
2015-Aug-28 13:33N 51°27' E 000°22'0 0.0
2015-Aug-28 12:33N 51°27' E 000°22'0 0.0
2015-Aug-28 11:33N 51°27' E 000°22'4 4.3
2015-Aug-28 10:33N 51°29' E 000°28'10 9.6
2015-Aug-28 09:34N 51°30' E 000°43'1111.0
2015-Aug-28 08:34N 51°30' E 001°01'1211.4
2015-Aug-28 07:33N 51°29' E 001°19'6 5.9
2015-Aug-28 06:32N 51°25' E 001°27'0 0.0
2015-Aug-28 05:32N 51°25' E 001°27'0 0.0
2015-Aug-28 04:32N 51°25' E 001°27'0 0.0
2015-Aug-28 03:32N 51°25' E 001°27'0 0.0
2015-Aug-28 02:34N 51°25' E 001°27'0 0.0
2015-Aug-28 01:33N 51°25' E 001°27'0 0.0
2015-Aug-28 00:33N 51°25' E 001°27'0 0.0
2015-Aug-27 23:33N 51°25' E 001°27'0 0.1
2015-Aug-27 22:33N 51°25' E 001°27'0 0.0
2015-Aug-27 21:34N 51°25' E 001°27'0 0.0
2015-Aug-27 20:32N 51°25' E 001°27'0 0.0
2015-Aug-27 19:32N 51°25' E 001°27'4 4.2
2015-Aug-27 18:34N 51°27' E 001°32'1111.0
2015-Aug-27 17:34N 51°29' E 001°50'1110.5
2015-Aug-27 16:33N 51°24' E 002°05'1010.1
2015-Aug-27 15:33N 51°21' E 002°20'1210.3
2015-Aug-27 14:25N 51°23' E 002°39'8 8.8
2015-Aug-27 13:33N 51°22' E 002°51'1010.2
2015-Aug-27 12:33N 51°22' E 003°07'  
2015-Aug-23 01:23N 51°20' E 003°12'0 0.0
2015-Aug-23 00:34N 51°20' E 003°12'4 3.9
2015-Aug-22 23:34N 51°22' E 003°06'1010.2
2015-Aug-22 22:34N 51°21' E 002°49'9 9.1
2015-Aug-22 21:33N 51°22' E 002°35'1110.9
2015-Aug-22 20:33N 51°19' E 002°18'10 9.5
2015-Aug-22 19:33N 51°21' E 002°03'8 8.1
2015-Aug-22 18:33N 51°27' E 001°54'4 4.2
2015-Aug-22 17:32N 51°28' E 001°48'0 0.1
2015-Aug-22 16:32N 51°28' E 001°48'0 0.1
2015-Aug-22 15:29N 51°28' E 001°48'0 0.0
2015-Aug-22 14:32N 51°28' E 001°48'0 0.1
2015-Aug-22 13:32N 51°28' E 001°48'0 0.0
2015-Aug-22 12:33N 51°28' E 001°48'2 2.5
2015-Aug-22 11:33N 51°26' E 001°46'10 9.9
2015-Aug-22 10:33N 51°17' E 001°40'9 9.4
2015-Aug-22 09:34N 51°07' E 001°38'1111.2
2015-Aug-22 08:33N 51°03' E 001°54'1212.2
2015-Aug-22 07:33N 51°04' E 002°14'4 4.3
2015-Aug-22 06:33N 51°03' E 002°21'1 0.1
2015-Aug-21 21:30N 51°03' E 002°19'  
Track history (hours):
 
Tides and Currents Weather Stations Pressure Air Temp Water Temp Dewpoint Dewpoint Depression Visibility Wind Speed Wind Dir Waves Ship Positions

Sikinos

Last reported at 2015-Aug-31 19:33 UTC. Time now 2015-Sep-01 08:04 UTC.
Position N 51°22' E 003°11'.

Length 90 m; draft 5.4 m.

Type: Ship (hazmat cat A). MMSI: 256462000.

Date/timePositionNaut miles runAvg speedWind from/ knotsBaromVisibWave heightAir tempDewpointWater temp
2015-Aug-31 19:33N 51°22' E 003°11'9 9.4
2015-Aug-31 18:33N 51°22' E 002°56'10 9.7
2015-Aug-31 17:33N 51°22' E 002°41'1411.4
2015-Aug-31 16:17N 51°19' E 002°18'811.4
2015-Aug-31 15:33N 51°20' E 002°05'1111.0
2015-Aug-31 14:33N 51°28' E 001°52'1111.3
2015-Aug-31 13:34N 51°28' E 001°34'6 6.1
2015-Aug-31 12:31N 51°25' E 001°26'0 0.0
2015-Aug-31 11:31N 51°25' E 001°26'0 0.1
2015-Aug-31 10:31N 51°25' E 001°26'0 0.0
2015-Aug-31 09:31N 51°25' E 001°26'0 0.0
2015-Aug-31 08:31N 51°25' E 001°26'0 0.0
2015-Aug-31 07:31N 51°25' E 001°26'0 0.0
2015-Aug-31 06:31N 51°25' E 001°26'0 0.0
2015-Aug-31 05:31N 51°25' E 001°26'0 0.0
2015-Aug-31 04:31N 51°25' E 001°26'0 0.0
2015-Aug-31 03:31N 51°25' E 001°26'0 0.0
2015-Aug-31 02:31N 51°25' E 001°26'0 0.2
2015-Aug-31 01:31N 51°25' E 001°26'0 0.0
2015-Aug-31 00:31N 51°25' E 001°25'0 0.0
2015-Aug-30 23:31N 51°25' E 001°26'0 0.0
2015-Aug-30 22:31N 51°25' E 001°25'0 0.1
2015-Aug-30 21:31N 51°25' E 001°26'0 0.0
2015-Aug-30 20:31N 51°25' E 001°26'0 0.0
2015-Aug-30 19:31N 51°25' E 001°26'0 0.0
2015-Aug-30 18:31N 51°25' E 001°26'0 0.1
2015-Aug-30 17:31N 51°25' E 001°26'0 0.0
2015-Aug-30 16:31N 51°25' E 001°26'0 0.0
2015-Aug-30 15:31N 51°25' E 001°26'0 0.0
2015-Aug-30 14:31N 51°25' E 001°26'0 0.1
2015-Aug-30 13:33N 51°25' E 001°26'0 0.1
2015-Aug-30 12:33N 51°25' E 001°26'0 0.0
2015-Aug-30 11:33N 51°25' E 001°26'0 0.0
2015-Aug-30 10:33N 51°25' E 001°26'0 0.1
2015-Aug-30 09:33N 51°25' E 001°26'0 0.0
2015-Aug-30 08:33N 51°25' E 001°26'0 0.0
2015-Aug-30 07:33N 51°25' E 001°26'0 0.0
2015-Aug-30 06:33N 51°25' E 001°26'0 0.0
2015-Aug-30 05:33N 51°25' E 001°26'0 0.1
2015-Aug-30 04:33N 51°25' E 001°26'0 0.0
2015-Aug-30 03:33N 51°25' E 001°26'0 0.0
2015-Aug-30 02:33N 51°25' E 001°26'0 0.1
2015-Aug-30 01:33N 51°25' E 001°26'0 0.1
2015-Aug-30 00:33N 51°25' E 001°26'0 0.0
2015-Aug-29 23:33N 51°25' E 001°26'0 0.0
2015-Aug-29 22:33N 51°25' E 001°26'0 0.0
2015-Aug-29 21:33N 51°25' E 001°25'0 0.1
2015-Aug-29 20:33N 51°25' E 001°26'0 0.0
2015-Aug-29 19:33N 51°25' E 001°26'0 0.0
2015-Aug-29 18:33N 51°25' E 001°26'0 0.0
2015-Aug-29 17:32N 51°25' E 001°26'0 0.0
2015-Aug-29 16:32N 51°25' E 001°26'0 0.0
2015-Aug-29 15:31N 51°25' E 001°26'0 0.0
2015-Aug-29 14:31N 51°25' E 001°26'0 0.0
2015-Aug-29 13:32N 51°25' E 001°26'0 0.1
2015-Aug-29 12:32N 51°25' E 001°26'0 0.0
2015-Aug-29 11:33N 51°25' E 001°26'0 0.0
2015-Aug-29 10:33N 51°25' E 001°25'0 0.0
2015-Aug-29 09:33N 51°25' E 001°26'0 0.0
2015-Aug-29 08:33N 51°25' E 001°26'0 0.0
2015-Aug-29 07:33N 51°25' E 001°26'0 0.0
2015-Aug-29 06:33N 51°25' E 001°26'0 0.0
2015-Aug-29 05:33N 51°25' E 001°26'0 0.0
2015-Aug-29 04:30N 51°25' E 001°26'0 0.0
2015-Aug-29 03:33N 51°25' E 001°26'0 0.0
2015-Aug-29 02:33N 51°25' E 001°26'0 0.0
2015-Aug-29 01:32N 51°25' E 001°26'0 0.1
2015-Aug-29 00:32N 51°25' E 001°26'0 0.1
2015-Aug-28 23:33N 51°25' E 001°26'3 3.1
2015-Aug-28 22:33N 51°28' E 001°23'9 9.0
2015-Aug-28 21:33N 51°29' E 001°09'10 9.6
2015-Aug-28 20:33N 51°29' E 000°53'10 9.7
2015-Aug-28 19:33N 51°30' E 000°38'9 9.4
2015-Aug-28 18:33N 51°27' E 000°23'1 1.0
2015-Aug-28 17:33N 51°27' E 000°22'0 0.0
2015-Aug-28 16:34N 51°27' E 000°22'0 0.0
2015-Aug-28 15:33N 51°27' E 000°22'0 0.0
2015-Aug-28 14:34N 51°27' E 000°22'0 0.0
2015-Aug-28 13:33N 51°27' E 000°22'0 0.0
2015-Aug-28 12:33N 51°27' E 000°22'0 0.0
2015-Aug-28 11:33N 51°27' E 000°22'4 4.3
2015-Aug-28 10:33N 51°29' E 000°28'10 9.6
2015-Aug-28 09:34N 51°30' E 000°43'1111.0
2015-Aug-28 08:34N 51°30' E 001°01'1211.4
2015-Aug-28 07:33N 51°29' E 001°19'6 5.9
2015-Aug-28 06:32N 51°25' E 001°27'0 0.0
2015-Aug-28 05:32N 51°25' E 001°27'0 0.0
2015-Aug-28 04:32N 51°25' E 001°27'0 0.0
2015-Aug-28 03:32N 51°25' E 001°27'0 0.0
2015-Aug-28 02:34N 51°25' E 001°27'0 0.0
2015-Aug-28 01:33N 51°25' E 001°27'0 0.0
2015-Aug-28 00:33N 51°25' E 001°27'0 0.0
2015-Aug-27 23:33N 51°25' E 001°27'0 0.1
2015-Aug-27 22:33N 51°25' E 001°27'0 0.0
2015-Aug-27 21:34N 51°25' E 001°27'0 0.0
2015-Aug-27 20:32N 51°25' E 001°27'0 0.0
2015-Aug-27 19:32N 51°25' E 001°27'4 4.2
2015-Aug-27 18:34N 51°27' E 001°32'1111.0
2015-Aug-27 17:34N 51°29' E 001°50'1110.5
2015-Aug-27 16:33N 51°24' E 002°05'1010.1
2015-Aug-27 15:33N 51°21' E 002°20'1210.3
2015-Aug-27 14:25N 51°23' E 002°39'8 8.8
2015-Aug-27 13:33N 51°22' E 002°51'1010.2
2015-Aug-27 12:33N 51°22' E 003°07'  
2015-Aug-23 01:23N 51°20' E 003°12'0 0.0
2015-Aug-23 00:34N 51°20' E 003°12'4 3.9
2015-Aug-22 23:34N 51°22' E 003°06'1010.2
2015-Aug-22 22:34N 51°21' E 002°49'9 9.1
2015-Aug-22 21:33N 51°22' E 002°35'1110.9
2015-Aug-22 20:33N 51°19' E 002°18'10 9.5
2015-Aug-22 19:33N 51°21' E 002°03'8 8.1
2015-Aug-22 18:33N 51°27' E 001°54'4 4.2
2015-Aug-22 17:32N 51°28' E 001°48'0 0.1
2015-Aug-22 16:32N 51°28' E 001°48'0 0.1
2015-Aug-22 15:29N 51°28' E 001°48'0 0.0
2015-Aug-22 14:32N 51°28' E 001°48'0 0.1
2015-Aug-22 13:32N 51°28' E 001°48'0 0.0
2015-Aug-22 12:33N 51°28' E 001°48'2 2.5
2015-Aug-22 11:33N 51°26' E 001°46'10 9.9
2015-Aug-22 10:33N 51°17' E 001°40'9 9.4
2015-Aug-22 09:34N 51°07' E 001°38'1111.2
2015-Aug-22 08:33N 51°03' E 001°54'1212.2
2015-Aug-22 07:33N 51°04' E 002°14'4 4.3
2015-Aug-22 06:33N 51°03' E 002°21'1 0.1
2015-Aug-21 21:30N 51°03' E 002°19'  

Dump ship's entire track history